createdAt,value
2019-03-19T00:01:00.609Z,1.00
2019-03-19T00:03:30.394Z,1.00
2019-03-19T00:06:01.218Z,1.00
2019-03-19T00:08:31.163Z,1.00
2019-03-19T00:11:00.906Z,1.00
2019-03-19T00:13:30.599Z,1.00
2019-03-19T00:16:03.535Z,1.00
2019-03-19T00:18:33.361Z,1.00
2019-03-19T00:21:03.161Z,1.00
2019-03-19T00:23:33.132Z,1.00
2019-03-19T00:26:03.172Z,1.00
2019-03-19T00:28:33.090Z,1.00
2019-03-19T00:31:02.755Z,1.00
2019-03-19T00:33:32.463Z,6.80
2019-03-19T00:36:02.161Z,8.50
2019-03-19T00:38:31.825Z,17.70
2019-03-19T00:41:01.590Z,13.80
2019-03-19T00:43:31.484Z,19.70
2019-03-19T00:46:01.259Z,20.80
2019-03-19T05:52:36.310Z,1.00
2019-03-19T05:58:59.979Z,1.00
2019-03-19T06:02:15.558Z,1.00
2019-03-19T06:04:39.951Z,1.00
2019-03-19T06:07:09.903Z,1.00
2019-03-19T06:09:39.780Z,1.00
2019-03-19T06:12:10.447Z,1.00
2019-03-19T06:14:40.405Z,1.00
2019-03-19T06:17:10.243Z,1.00
2019-03-19T06:21:14.150Z,1.00
2019-03-19T06:24:44.230Z,1.00
2019-03-19T06:31:11.794Z,1.00
2019-03-19T06:34:12.782Z,1.00
2019-03-19T06:37:24.414Z,1.00
2019-03-19T06:40:51.861Z,1.00
2019-03-19T06:43:43.693Z,1.00
2019-03-19T06:46:29.154Z,1.00
2019-03-19T06:49:44.853Z,1.00
2019-03-19T06:52:14.102Z,1.00
2019-03-19T06:54:45.241Z,1.00
2019-03-19T06:57:16.905Z,1.00
2019-03-19T06:59:51.616Z,1.00
2019-03-19T07:02:21.614Z,1.00
2019-03-19T07:04:52.428Z,1.00
2019-03-19T07:07:22.525Z,1.00
2019-03-19T07:09:52.461Z,1.00
2019-03-19T07:12:22.424Z,1.00
2019-03-19T07:14:52.387Z,1.00
2019-03-19T07:17:22.289Z,1.00
2019-03-19T07:19:52.199Z,1.00
2019-03-19T07:22:22.185Z,1.00
2019-03-19T07:24:52.107Z,1.00
2019-03-19T07:27:22.015Z,99.90
2019-03-19T07:29:52.126Z,99.90
2019-03-19T07:32:33.046Z,1.00
2019-03-19T07:35:38.146Z,99.90
2019-03-19T07:38:01.573Z,1.00
2019-03-19T07:40:41.555Z,99.90
2019-03-19T07:50:28.966Z,99.90
2019-03-19T07:53:32.482Z,99.90
2019-03-19T07:55:49.860Z,25.10
2019-03-19T08:11:30.508Z,99.90
2019-03-19T08:18:10.483Z,99.90
2019-03-19T08:21:03.017Z,99.90
2019-03-19T08:25:05.773Z,99.90
2019-03-19T08:27:17.788Z,99.90
2019-03-19T08:30:09.325Z,1.00
2019-03-19T08:32:51.564Z,99.90
2019-03-19T08:35:44.670Z,99.90
2019-03-19T08:38:26.433Z,18.10
2019-03-19T08:41:16.015Z,99.90
2019-03-19T08:43:52.637Z,99.90
2019-03-19T08:46:38.926Z,99.90
2019-03-19T08:49:53.487Z,1.00
2019-03-19T08:52:59.347Z,99.90
2019-03-19T08:55:27.686Z,1.00
2019-03-19T08:58:14.602Z,1.00
2019-03-19T09:01:36.059Z,99.90
2019-03-19T09:04:41.850Z,99.90
2019-03-19T09:07:50.172Z,99.90
2019-03-19T09:10:42.478Z,99.90
2019-03-19T09:13:36.257Z,99.90
2019-03-19T09:16:16.168Z,99.90
2019-03-19T09:19:18.946Z,73.30
2019-03-19T09:22:06.390Z,1.00
2019-03-19T09:24:54.459Z,1.00
2019-03-19T09:27:46.916Z,1.00
2019-03-19T09:34:08.690Z,99.90
2019-03-19T09:36:57.410Z,99.90
2019-03-19T09:39:37.500Z,99.90
2019-03-19T09:42:23.552Z,99.90
2019-03-19T09:45:17.246Z,99.90
2019-03-19T09:47:47.140Z,99.90
2019-03-19T09:53:39.425Z,99.90
2019-03-19T09:56:22.916Z,99.90
2019-03-19T09:58:56.213Z,99.90
2019-03-19T10:01:26.807Z,99.90
2019-03-19T10:04:01.820Z,99.90
2019-03-19T10:06:33.537Z,99.90
2019-03-19T10:09:05.211Z,99.90
2019-03-19T10:11:35.551Z,99.90
2019-03-19T10:14:14.848Z,99.90
2019-03-19T10:20:00.508Z,99.90
2019-03-19T10:22:33.933Z,99.90
2019-03-19T10:25:16.976Z,99.90
2019-03-19T10:28:16.184Z,99.90
2019-03-19T10:30:55.452Z,99.90
2019-03-19T10:33:53.113Z,99.90
2019-03-19T10:36:34.945Z,99.90
2019-03-19T10:39:08.890Z,99.90
2019-03-19T10:42:00.475Z,99.90
2019-03-19T10:44:43.636Z,99.90
2019-03-19T10:47:27.909Z,99.90
2019-03-19T10:50:11.167Z,99.90
2019-03-19T10:56:30.830Z,99.90
2019-03-19T10:58:48.309Z,99.90
2019-03-19T11:01:36.006Z,99.90
2019-03-19T11:04:28.966Z,99.90
2019-03-19T11:07:18.753Z,99.90
2019-03-19T11:09:55.836Z,99.90
2019-03-19T11:14:14.099Z,99.90
2019-03-19T11:15:20.525Z,99.90
2019-03-19T11:18:16.868Z,99.90
2019-03-19T11:20:57.640Z,99.90
2019-03-19T11:23:27.491Z,99.90
2019-03-19T11:26:04.665Z,99.90
2019-03-19T11:28:41.517Z,99.90
2019-03-19T11:31:11.161Z,99.90
2019-03-19T11:34:15.142Z,99.90
2019-03-19T11:36:58.265Z,99.90
2019-03-19T11:39:55.635Z,99.90
2019-03-19T11:42:32.563Z,99.90
2019-03-19T11:45:19.535Z,99.90
2019-03-19T11:48:06.291Z,99.90
2019-03-19T11:51:06.132Z,99.90
2019-03-19T11:53:36.012Z,99.90
2019-03-19T11:56:23.493Z,99.90
2019-03-19T11:58:53.357Z,99.90
2019-03-19T12:01:23.108Z,99.90
2019-03-19T12:07:23.222Z,99.90
2019-03-19T12:09:53.917Z,99.90
2019-03-19T12:12:34.636Z,99.90
2019-03-19T12:15:10.752Z,99.90
2019-03-19T12:18:08.428Z,99.90
2019-03-19T12:21:01.217Z,99.90
2019-03-19T12:27:18.400Z,99.90
2019-03-19T12:30:29.566Z,99.90
2019-03-19T12:33:01.362Z,99.90
2019-03-19T12:35:38.629Z,99.90
2019-03-19T12:38:22.257Z,99.90
2019-03-19T12:41:13.213Z,99.90
2019-03-19T12:43:50.421Z,99.90
2019-03-19T12:46:29.501Z,99.90
2019-03-19T12:58:13.805Z,99.90
2019-03-19T13:00:34.561Z,99.90
2019-03-19T13:03:05.214Z,99.90
2019-03-19T13:05:35.001Z,99.90
2019-03-19T13:08:05.221Z,99.90
2019-03-19T13:10:35.571Z,99.90
2019-03-19T13:13:06.366Z,99.90
2019-03-19T13:15:36.528Z,99.90
2019-03-19T13:18:06.826Z,99.90
2019-03-19T13:20:36.639Z,99.90
2019-03-19T13:23:09.635Z,99.90
2019-03-19T13:25:39.968Z,99.90
2019-03-19T13:28:10.019Z,99.90
2019-03-19T13:30:45.161Z,99.90
2019-03-19T13:33:11.551Z,99.90
2019-03-19T13:35:41.589Z,99.90
2019-03-19T13:38:12.793Z,99.90
2019-03-19T13:40:42.757Z,99.90
2019-03-19T13:43:12.616Z,99.90
2019-03-19T13:45:42.482Z,99.90
2019-03-19T13:48:12.562Z,99.90
2019-03-19T13:50:42.578Z,99.90
2019-03-19T13:53:12.780Z,99.90
2019-03-19T13:55:43.087Z,99.90
2019-03-19T13:58:13.267Z,99.90
2019-03-19T14:00:43.875Z,99.90
2019-03-19T14:03:16.206Z,99.90
2019-03-19T14:05:46.324Z,99.90
2019-03-19T14:08:19.452Z,99.90
2019-03-19T14:10:51.006Z,99.90
2019-03-19T14:13:20.967Z,99.90
2019-03-19T14:15:50.898Z,99.90
2019-03-19T14:18:21.064Z,99.90
2019-03-19T14:20:51.005Z,99.90
2019-03-19T14:23:21.059Z,99.90
2019-03-19T14:25:52.262Z,99.90
2019-03-19T14:28:22.135Z,99.90
2019-03-19T14:30:52.085Z,99.90
2019-03-19T14:33:21.931Z,99.90
2019-03-19T14:35:51.806Z,99.90
2019-03-19T14:39:34.951Z,99.90
2019-03-19T14:42:05.773Z,99.90
2019-03-19T14:44:36.430Z,99.90
2019-03-19T14:47:06.932Z,99.90
2019-03-19T14:49:46.334Z,99.90
2019-03-19T14:52:08.975Z,99.90
2019-03-19T14:54:39.166Z,99.90
2019-03-19T14:57:15.778Z,99.90
2019-03-19T14:59:45.830Z,99.90
2019-03-19T15:02:16.213Z,99.90
2019-03-19T15:04:48.135Z,99.90
2019-03-19T15:07:18.114Z,99.90
2019-03-19T15:09:48.011Z,99.90
2019-03-19T15:12:18.156Z,99.90
2019-03-19T15:14:48.155Z,99.90
2019-03-19T15:17:18.581Z,99.90
2019-03-19T15:19:48.635Z,99.90
2019-03-19T15:22:20.432Z,99.90
2019-03-19T15:24:50.268Z,99.90
2019-03-19T15:27:20.314Z,99.90
2019-03-19T15:29:53.091Z,99.90
2019-03-19T15:32:24.407Z,99.90
2019-03-19T15:38:24.184Z,99.90
2019-03-19T15:41:05.339Z,99.90
2019-03-19T15:43:35.403Z,99.90
2019-03-19T15:46:05.763Z,99.90
2019-03-19T15:48:35.982Z,99.90
2019-03-19T15:51:08.735Z,99.90
2019-03-19T15:53:38.589Z,99.90
2019-03-19T15:56:08.633Z,99.90
2019-03-19T15:58:38.757Z,99.90
2019-03-19T16:01:08.632Z,99.90
2019-03-19T16:03:38.506Z,99.90
2019-03-19T16:06:09.557Z,99.90
2019-03-19T16:08:41.510Z,99.90
2019-03-19T16:11:16.140Z,99.90
2019-03-19T16:13:46.905Z,99.90
2019-03-19T16:16:18.526Z,99.90
2019-03-19T16:18:52.402Z,99.90
2019-03-19T16:21:26.756Z,99.90
2019-03-19T16:24:25.212Z,99.90
2019-03-19T16:27:00.378Z,99.90
2019-03-19T16:29:32.007Z,99.90
2019-03-19T16:32:02.848Z,99.90
2019-03-19T16:34:42.502Z,99.90
2019-03-19T16:37:13.008Z,99.90
2019-03-19T16:39:43.294Z,99.90
2019-03-19T16:42:22.105Z,99.90
2019-03-19T16:44:52.366Z,99.90
2019-03-19T16:47:22.731Z,99.90
2019-03-19T16:49:53.017Z,99.90
2019-03-19T16:52:24.468Z,99.90
2019-03-19T16:54:54.337Z,99.90
2019-03-19T16:57:24.499Z,99.90
2019-03-19T16:59:55.400Z,1.00
2019-03-19T17:02:27.364Z,1.00
2019-03-19T17:04:57.341Z,1.00
2019-03-19T17:07:27.203Z,1.00
2019-03-19T17:09:57.015Z,1.00
2019-03-19T17:12:26.873Z,1.00
2019-03-19T17:14:58.479Z,1.00
2019-03-19T17:17:28.462Z,1.00
2019-03-19T17:19:58.606Z,1.00
2019-03-19T17:22:28.670Z,1.00
2019-03-19T17:24:59.058Z,1.00
2019-03-19T17:27:28.803Z,48.80
2019-03-19T17:29:59.396Z,99.90
2019-03-19T17:32:29.667Z,99.90
2019-03-19T17:35:00.122Z,99.90
2019-03-19T17:37:31.126Z,99.90
2019-03-19T17:40:01.963Z,99.90
2019-03-19T17:42:45.830Z,99.90
2019-03-19T17:45:19.161Z,1.00
2019-03-19T17:47:49.685Z,1.00
2019-03-19T17:50:23.450Z,1.00
2019-03-19T17:52:55.288Z,1.00
2019-03-19T17:55:27.541Z,1.00
2019-03-19T17:58:00.402Z,1.00
2019-03-19T18:00:32.400Z,1.00
2019-03-19T18:03:02.463Z,1.00
2019-03-19T18:05:35.614Z,1.00
2019-03-19T18:08:08.651Z,1.00
2019-03-19T18:10:45.424Z,1.00
2019-03-19T18:13:18.366Z,1.00
2019-03-19T18:15:49.877Z,1.00
2019-03-19T18:18:22.407Z,1.00
2019-03-19T18:20:53.716Z,1.00
2019-03-19T18:23:29.316Z,1.00
2019-03-19T18:26:02.945Z,1.00
2019-03-19T18:28:42.664Z,1.00
2019-03-19T18:31:08.716Z,1.00
2019-03-19T18:33:40.227Z,1.00
2019-03-19T18:36:10.712Z,22.90
2019-03-19T18:38:45.541Z,96.00
2019-03-19T18:41:18.428Z,99.90
2019-03-19T18:43:53.634Z,99.90
2019-03-19T18:46:30.880Z,99.90
2019-03-19T19:15:03.384Z,1.00
2019-03-19T19:18:39.343Z,1.00
2019-03-19T19:29:42.368Z,1.00
2019-03-19T19:32:18.064Z,26.70
2019-03-19T21:17:01.825Z,85.90
2019-03-19T21:19:31.751Z,23.60
2019-03-19T21:22:01.642Z,99.90
2019-03-19T21:24:31.511Z,99.90
2019-03-19T21:27:04.293Z,99.90
2019-03-19T21:29:42.628Z,99.90
2019-03-19T21:32:12.876Z,99.90
2019-03-19T21:34:42.890Z,99.90
2019-03-19T21:37:13.153Z,1.00
2019-03-19T21:39:42.926Z,99.90
2019-03-19T21:42:16.225Z,1.00
2019-03-19T21:44:49.569Z,1.00
2019-03-19T21:50:54.354Z,1.00
2019-03-19T21:54:48.276Z,1.00
2019-03-19T22:01:12.666Z,1.00
2019-03-19T22:04:03.109Z,1.00
2019-03-19T22:06:26.849Z,1.00
2019-03-19T22:09:05.622Z,1.00
2019-03-19T22:11:38.174Z,1.00
2019-03-19T22:14:09.527Z,1.00
2019-03-19T22:16:41.370Z,1.00
2019-03-19T22:19:11.358Z,1.00
2019-03-19T22:21:41.679Z,1.00
2019-03-19T22:24:12.606Z,1.00
2019-03-19T22:26:42.849Z,1.00
2019-03-19T22:29:14.063Z,1.00
2019-03-19T22:46:40.724Z,1.00
2019-03-19T23:05:26.233Z,1.00
2019-03-19T23:07:57.910Z,13.30
2019-03-19T23:10:28.873Z,28.80
2019-03-19T23:12:59.107Z,45.80
2019-03-19T23:15:29.490Z,35.80
2019-03-19T23:18:01.507Z,54.40
2019-03-19T23:20:32.185Z,69.60
2019-03-19T23:23:02.306Z,68.10
2019-03-19T23:25:36.188Z,93.70
2019-03-19T23:28:08.499Z,90.60
2019-03-19T23:30:39.459Z,90.60
2019-03-19T23:33:10.824Z,86.80
2019-03-19T23:35:41.174Z,93.40
2019-03-19T23:38:11.846Z,99.90
2019-03-19T23:40:42.163Z,92.60
2019-03-19T23:43:12.164Z,56.00
2019-03-19T23:45:46.461Z,62.40
2019-03-19T23:48:20.637Z,75.70
2019-03-19T23:50:54.460Z,81.30
2019-03-19T23:53:28.631Z,86.00
2019-03-19T23:56:04.722Z,42.10
2019-03-19T23:58:36.962Z,26.30
